Time;durP1;ratioP1;P1;durP2;ratioP2;P2;SDS_P1;SDS_P2;PMS_P1;PMS_P2;Temp;Humidity;BMP_temperature;BMP_pressure;BME280_temperature;BME280_humidity;BME280_pressure;Samples;Min_cycle;Max_cycle;Signal;HPM_P1;HPM_P2
2023/12/31 00:00:25;;;;;;;6.87;1.70;;;;;;;8.86;78.84;100228.53;5021342;28;20237;-80
2023/12/31 00:02:51;;;;;;;2.63;1.30;;;;;;;8.76;78.76;100230.44;5019588;28;20202;-80
2023/12/31 00:05:17;;;;;;;4.03;1.37;;;;;;;8.67;79.56;100231.41;5020433;28;20297;-80
2023/12/31 00:07:44;;;;;;;1.53;1.10;;;;;;;8.80;79.32;100207.78;5018702;28;20656;-80
2023/12/31 00:10:10;;;;;;;3.27;1.30;;;;;;;8.89;78.93;100207.66;5018524;28;20253;-80
2023/12/31 00:12:36;;;;;;;4.63;1.40;;;;;;;8.92;78.75;100205.88;5018525;28;20203;-80
2023/12/31 00:15:04;;;;;;;2.93;1.57;;;;;;;8.93;78.29;100211.94;5019135;28;20794;-80
2023/12/31 00:17:31;;;;;;;3.87;1.40;;;;;;;8.86;78.88;100218.09;5018583;28;20230;-80
2023/12/31 00:19:58;;;;;;;6.50;1.37;;;;;;;8.79;78.79;100201.75;5018227;28;20207;-80
2023/12/31 00:22:24;;;;;;;2.53;1.27;;;;;;;8.85;78.84;100191.22;5018653;28;20199;-80
2023/12/31 00:24:54;;;;;;;3.43;1.07;;;;;;;8.83;78.74;100182.59;5019135;28;20281;-80
2023/12/31 00:27:20;;;;;;;2.13;1.90;;;;;;;8.90;78.62;100178.13;5018448;28;20223;-80
2023/12/31 00:29:46;;;;;;;2.33;1.27;;;;;;;8.85;78.86;100175.63;5019565;28;20206;-81
2023/12/31 00:32:13;;;;;;;3.93;1.60;;;;;;;8.83;79.18;100158.31;5019738;28;20209;-80
2023/12/31 00:34:40;;;;;;;3.40;1.13;;;;;;;8.72;79.62;100159.34;5018111;28;20226;-79
2023/12/31 00:37:07;;;;;;;2.00;1.20;;;;;;;8.82;79.32;100143.56;5018969;28;20202;-80
2023/12/31 00:39:33;;;;;;;2.27;1.20;;;;;;;8.80;79.41;100133.22;5018060;28;20266;-80
2023/12/31 00:42:00;;;;;;;2.27;1.27;;;;;;;8.78;79.43;100127.16;5018009;28;20266;-80
2023/12/31 00:44:26;;;;;;;3.97;1.30;;;;;;;8.86;79.63;100117.47;5018270;28;20199;-80
2023/12/31 00:46:53;;;;;;;3.63;1.30;;;;;;;8.65;79.64;100125.66;5015589;28;20229;-80
2023/12/31 00:49:21;;;;;;;2.60;1.43;;;;;;;8.79;79.54;100100.25;5018158;28;20206;-80
2023/12/31 00:51:49;;;;;;;2.43;1.37;;;;;;;8.86;79.50;100096.66;5018715;28;20611;-80
2023/12/31 00:54:15;;;;;;;2.70;1.40;;;;;;;8.91;79.38;100107.84;5010879;28;20202;-80
2023/12/31 00:56:41;;;;;;;1.33;1.17;;;;;;;8.85;79.65;100104.50;5018334;28;20218;-80
2023/12/31 00:59:08;;;;;;;3.63;1.20;;;;;;;8.75;79.96;100099.44;5019571;28;20207;-80
2023/12/31 01:01:34;;;;;;;1.70;1.17;;;;;;;8.79;80.09;100096.78;5020235;28;20210;-80
2023/12/31 01:04:01;;;;;;;2.53;1.40;;;;;;;8.88;79.84;100088.81;5020315;28;20207;-80
2023/12/31 01:06:27;;;;;;;3.13;1.60;;;;;;;8.93;79.43;100100.00;5020838;28;20230;-80
2023/12/31 01:08:57;;;;;;;2.90;1.13;;;;;;;8.78;79.79;100113.28;5020094;28;20585;-80
2023/12/31 01:11:24;;;;;;;3.53;1.40;;;;;;;8.82;79.86;100097.59;5021196;28;20209;-80
2023/12/31 01:13:50;;;;;;;2.90;1.60;;;;;;;8.91;79.61;100089.63;5019991;28;20203;-80
2023/12/31 01:16:17;;;;;;;4.13;1.50;;;;;;;8.94;79.50;100093.94;5012370;28;20586;-80
2023/12/31 01:18:44;;;;;;;2.47;1.47;;;;;;;8.84;79.32;100115.78;5020614;28;20210;-80
2023/12/31 01:21:10;;;;;;;3.20;1.30;;;;;;;8.99;79.30;100109.47;5018533;28;20245;-80
2023/12/31 01:23:36;;;;;;;3.10;1.50;;;;;;;9.02;78.91;100109.38;5016558;28;20354;-80
2023/12/31 01:26:04;;;;;;;2.70;1.13;;;;;;;9.01;78.74;100111.13;5017333;28;20653;-80
2023/12/31 01:28:30;;;;;;;2.87;2.10;;;;;;;9.05;78.84;100110.19;5017355;28;20223;-80
2023/12/31 01:30:57;;;;;;;2.70;1.20;;;;;;;9.06;78.70;100116.28;5017706;28;20610;-80
2023/12/31 01:33:23;;;;;;;2.27;1.27;;;;;;;8.78;78.85;100124.56;5017348;28;20301;-80
2023/12/31 01:35:49;;;;;;;3.93;1.43;;;;;;;8.82;78.92;100113.22;5017952;28;20231;-80
2023/12/31 01:38:16;;;;;;;2.00;1.30;;;;;;;8.82;79.34;100105.41;5018504;28;20698;-80
2023/12/31 01:40:52;;;;;;;2.53;1.23;;;;;;;8.73;79.41;100111.59;5017697;28;20207;-80
2023/12/31 01:43:19;;;;;;;1.63;1.47;;;;;;;8.70;79.21;100100.38;5017699;28;20265;-80
2023/12/31 01:45:46;;;;;;;2.77;1.40;;;;;;;8.69;79.12;100099.53;5017031;28;20708;-80
2023/12/31 01:48:14;;;;;;;2.17;1.20;;;;;;;8.66;78.45;100101.31;5017521;28;20234;-80
2023/12/31 01:50:40;;;;;;;2.60;1.20;;;;;;;8.57;78.57;100102.34;5018498;28;20657;-80
2023/12/31 01:53:07;;;;;;;2.83;1.07;;;;;;;8.51;79.01;100092.03;5017165;28;20255;-80
2023/12/31 01:55:34;;;;;;;2.07;1.30;;;;;;;8.49;78.85;100086.84;5017332;28;20644;-80
2023/12/31 01:58:01;;;;;;;1.33;1.00;;;;;;;8.42;79.18;100086.97;5017409;28;20241;-80
2023/12/31 02:00:29;;;;;;;4.00;1.30;;;;;;;8.35;79.11;100083.59;5018470;28;20207;-80
2023/12/31 02:02:55;;;;;;;2.07;1.10;;;;;;;8.29;79.38;100084.53;5016871;28;20208;-80
2023/12/31 02:05:22;;;;;;;1.33;0.80;;;;;;;8.21;79.64;100077.75;5009421;28;20305;-80
2023/12/31 02:07:48;;;;;;;3.07;1.40;;;;;;;8.24;79.35;100073.34;5016115;28;20704;-80
2023/12/31 02:10:16;;;;;;;2.83;1.20;;;;;;;8.21;79.54;100063.00;5016807;28;20211;-80
2023/12/31 02:12:43;;;;;;;1.13;1.00;;;;;;;8.22;79.97;100064.72;5017312;28;20270;-80
2023/12/31 02:15:09;;;;;;;3.60;1.40;;;;;;;8.18;79.35;100067.38;5017340;28;20231;-80
2023/12/31 02:17:37;;;;;;;1.07;1.00;;;;;;;8.11;79.50;100075.28;5016048;28;20264;-80
2023/12/31 02:20:06;;;;;;;3.47;1.37;;;;;;;8.02;79.84;100078.00;5017296;28;20203;-80
2023/12/31 02:22:32;;;;;;;5.73;1.50;;;;;;;8.07;79.70;100070.16;5017095;28;20234;-80
2023/12/31 02:25:04;;;;;;;1.83;1.33;;;;;;;8.04;79.92;100054.59;5016144;28;20235;-80
2023/12/31 02:27:32;;;;;;;3.63;1.10;;;;;;;8.02;80.17;100053.75;5016816;28;20383;-80
2023/12/31 02:29:59;;;;;;;3.03;1.10;;;;;;;7.98;79.89;100049.50;5017096;28;20202;-80
2023/12/31 02:32:25;;;;;;;3.47;1.20;;;;;;;8.00;79.72;100039.94;5016053;28;20310;-80
2023/12/31 02:34:52;;;;;;;1.20;0.90;;;;;;;8.06;80.32;100032.88;5017024;28;20231;-80
2023/12/31 02:37:18;;;;;;;3.50;1.27;;;;;;;8.03;80.13;100019.94;5021144;28;20574;-80
2023/12/31 02:39:44;;;;;;;3.20;1.27;;;;;;;8.06;80.23;100006.03;5021228;28;20203;-80
2023/12/31 02:42:11;;;;;;;2.63;1.27;;;;;;;7.88;81.89;99981.19;5020909;28;20207;-80
2023/12/31 02:44:38;;;;;;;1.87;1.20;;;;;;;7.91;81.77;99958.63;5021652;28;20257;-80
2023/12/31 02:47:05;;;;;;;3.07;1.63;;;;;;;7.75;81.41;99955.41;5020406;28;20203;-80
2023/12/31 02:49:31;;;;;;;1.23;1.10;;;;;;;7.68;82.41;99934.75;5021311;28;20223;-80
2023/12/31 02:51:58;;;;;;;4.60;1.57;;;;;;;7.77;81.86;99921.63;5021238;28;20233;-80
2023/12/31 02:54:24;;;;;;;1.10;1.00;;;;;;;7.75;81.82;99907.78;5013267;28;20207;-80
2023/12/31 02:56:50;;;;;;;3.13;0.90;;;;;;;7.71;81.68;99909.56;5020353;28;20692;-81
2023/12/31 02:59:17;;;;;;;4.73;1.30;;;;;;;7.47;82.27;99907.34;5020484;28;20816;-80
2023/12/31 03:01:44;;;;;;;1.50;1.30;;;;;;;7.40;83.21;99890.16;5020052;28;20711;-80
2023/12/31 03:04:11;;;;;;;1.30;1.20;;;;;;;7.40;83.76;99851.22;5020524;28;20237;-80
2023/12/31 03:06:38;;;;;;;2.27;1.20;;;;;;;7.39;83.83;99839.09;5019652;28;20226;-80
2023/12/31 03:09:06;;;;;;;1.70;1.60;;;;;;;7.22;84.67;99823.78;5020227;28;20649;-80
2023/12/31 03:11:32;;;;;;;3.73;1.70;;;;;;;6.86;86.99;99807.88;5019835;28;20616;-80
2023/12/31 03:13:59;;;;;;;1.60;1.40;;;;;;;7.00;88.04;99745.38;5019872;28;20732;-80
2023/12/31 03:16:26;;;;;;;3.87;1.27;;;;;;;7.19;88.59;99704.44;5019832;28;20222;-80
2023/12/31 03:18:54;;;;;;;4.47;1.30;;;;;;;7.23;87.23;99709.53;5019554;28;20257;-80
2023/12/31 03:21:20;;;;;;;2.70;1.47;;;;;;;7.28;88.49;99697.34;5019793;28;20261;-80
2023/12/31 03:23:47;;;;;;;2.37;1.90;;;;;;;7.42;88.27;99696.25;5019604;28;20217;-80
2023/12/31 03:26:13;;;;;;;3.23;1.40;;;;;;;7.52;87.02;99690.00;5019431;28;20231;-80
2023/12/31 03:28:39;;;;;;;4.67;1.90;;;;;;;7.59;86.67;99701.13;5019393;28;20234;-80
2023/12/31 03:31:05;;;;;;;1.60;1.20;;;;;;;7.62;85.38;99724.44;5019644;28;20631;-80
2023/12/31 03:33:32;;;;;;;2.27;1.60;;;;;;;7.61;85.47;99733.09;5018698;28;20207;-80
2023/12/31 03:36:00;;;;;;;1.73;1.23;;;;;;;7.67;85.40;99749.47;5019264;28;20223;-80
2023/12/31 03:38:26;;;;;;;2.53;1.30;;;;;;;7.66;84.48;99760.72;5019507;28;20203;-80
2023/12/31 03:40:52;;;;;;;3.83;1.37;;;;;;;7.67;84.23;99761.56;5018274;28;20207;-80
2023/12/31 03:43:19;;;;;;;2.13;1.37;;;;;;;7.68;83.73;99768.50;5019579;28;20269;-80
2023/12/31 03:45:46;;;;;;;1.60;1.50;;;;;;;7.52;83.70;99771.34;5018550;28;20608;-80
2023/12/31 03:48:13;;;;;;;1.27;1.10;;;;;;;7.41;85.73;99751.66;5018350;28;20730;-80
2023/12/31 03:50:39;;;;;;;2.00;1.50;;;;;;;7.45;86.29;99704.84;5018159;28;20235;-79
2023/12/31 03:53:07;;;;;;;2.63;1.47;;;;;;;7.58;85.97;99700.28;5018473;28;20677;-80
2023/12/31 03:55:33;;;;;;;2.23;1.40;;;;;;;7.56;86.80;99686.47;5018904;28;20250;-80
2023/12/31 03:58:00;;;;;;;1.77;1.40;;;;;;;7.53;86.92;99671.78;5018132;28;20207;-80
2023/12/31 04:00:26;;;;;;;2.37;1.60;;;;;;;7.62;86.40;99667.31;5019042;28;20207;-80
2023/12/31 04:02:51;;;;;;;1.67;1.43;;;;;;;7.66;85.98;99674.16;5018558;28;20281;-80
2023/12/31 04:05:18;;;;;;;2.87;1.60;;;;;;;7.70;86.24;99673.22;5019361;28;20238;-80
2023/12/31 04:07:44;;;;;;;2.73;1.47;;;;;;;7.65;85.68;99673.31;5019284;28;20202;-80
2023/12/31 04:10:12;;;;;;;6.70;1.57;;;;;;;7.61;86.57;99658.66;5018822;28;20211;-80
2023/12/31 04:12:38;;;;;;;2.43;1.60;;;;;;;7.52;86.29;99654.50;5019561;28;20233;-80
2023/12/31 04:15:07;;;;;;;1.77;1.13;;;;;;;7.49;87.33;99633.78;5019265;28;20222;-80
2023/12/31 04:17:34;;;;;;;2.77;1.47;;;;;;;7.59;86.58;99618.00;5019235;28;20207;-80
2023/12/31 04:20:00;;;;;;;2.80;1.67;;;;;;;7.59;86.47;99618.00;5019466;28;20298;-80
2023/12/31 04:22:27;;;;;;;2.07;1.13;;;;;;;7.49;87.50;99607.81;5018669;28;20209;-80
2023/12/31 04:24:54;;;;;;;1.73;1.40;;;;;;;7.47;87.65;99596.63;5019428;28;20261;-80
2023/12/31 04:27:21;;;;;;;4.80;1.60;;;;;;;7.52;88.34;99570.53;5018645;28;20253;-80
2023/12/31 04:29:48;;;;;;;2.67;1.30;;;;;;;7.51;89.19;99548.94;5018880;28;20293;-80
2023/12/31 04:32:14;;;;;;;2.47;1.60;;;;;;;7.51;89.86;99511.69;5018524;28;20257;-80
2023/12/31 04:34:40;;;;;;;2.43;1.70;;;;;;;7.53;91.97;99484.81;5019201;28;20226;-80
2023/12/31 04:37:07;;;;;;;2.27;1.40;;;;;;;7.70;91.32;99460.22;5018565;28;20211;-80
2023/12/31 04:39:33;;;;;;;1.83;1.20;;;;;;;7.81;91.50;99459.94;5017975;28;20203;-80
2023/12/31 04:42:00;;;;;;;1.80;1.30;;;;;;;7.74;91.93;99456.66;5019443;28;20238;-80
2023/12/31 04:44:28;;;;;;;1.77;1.33;;;;;;;8.00;91.55;99440.44;5018826;28;20211;-80
2023/12/31 04:46:54;;;;;;;1.70;1.43;;;;;;;8.18;90.33;99456.47;5017728;28;20203;-80
2023/12/31 04:49:20;;;;;;;1.50;1.20;;;;;;;8.24;89.60;99475.34;5018236;28;20226;-80
2023/12/31 04:51:47;;;;;;;3.03;1.10;;;;;;;8.15;89.53;99480.81;5018125;28;20207;-80
2023/12/31 04:54:13;;;;;;;1.63;1.23;;;;;;;8.27;89.40;99480.50;5018283;28;20272;-80
2023/12/31 04:56:39;;;;;;;1.40;1.20;;;;;;;8.27;89.31;99485.69;5017891;28;20309;-79
2023/12/31 04:59:06;;;;;;;1.93;1.37;;;;;;;8.37;89.09;99493.28;5016670;28;20206;-80
2023/12/31 05:01:34;;;;;;;1.63;0.90;;;;;;;8.42;88.50;99509.63;5018544;28;20309;-80
2023/12/31 05:04:01;;;;;;;2.03;1.23;;;;;;;8.48;87.48;99525.94;5018099;28;20211;-80
2023/12/31 05:06:26;;;;;;;2.03;0.97;;;;;;;8.55;87.27;99539.66;5018356;28;20296;-80
2023/12/31 05:08:53;;;;;;;2.80;1.30;;;;;;;8.45;86.91;99552.03;5019499;28;20223;-80
2023/12/31 05:11:19;;;;;;;1.00;0.90;;;;;;;8.52;86.95;99545.78;5018825;28;20587;-80
2023/12/31 05:13:46;;;;;;;1.53;0.90;;;;;;;8.51;87.10;99544.06;5018906;28;20229;-80
2023/12/31 05:16:14;;;;;;;1.47;0.90;;;;;;;8.52;86.79;99555.31;5017995;28;20687;-80
2023/12/31 05:18:43;;;;;;;1.77;0.97;;;;;;;8.56;86.18;99559.53;5017735;28;20336;-80
2023/12/31 05:21:10;;;;;;;2.10;1.10;;;;;;;8.60;85.90;99568.13;5018658;28;20294;-80
2023/12/31 05:23:36;;;;;;;3.33;0.80;;;;;;;8.59;85.94;99569.88;5018399;28;20195;-80
2023/12/31 05:26:03;;;;;;;0.97;0.90;;;;;;;8.54;86.24;99563.94;5017752;28;20277;-80
2023/12/31 05:28:29;;;;;;;2.00;0.90;;;;;;;8.61;86.33;99565.50;5018351;28;20669;-80
2023/12/31 05:30:56;;;;;;;3.30;0.87;;;;;;;8.66;85.93;99565.38;5018221;28;20622;-80
2023/12/31 05:33:22;;;;;;;1.20;0.80;;;;;;;8.64;85.77;99559.34;5016630;28;20677;-80
2023/12/31 05:35:50;;;;;;;1.80;0.93;;;;;;;8.67;85.38;99562.75;5017257;28;20234;-80
2023/12/31 05:38:17;;;;;;;1.40;0.90;;;;;;;8.46;86.61;99550.25;5017612;28;20229;-80
2023/12/31 05:40:43;;;;;;;1.33;1.00;;;;;;;8.56;86.25;99530.94;5018183;28;20740;-80
2023/12/31 05:43:11;;;;;;;1.77;1.03;;;;;;;8.58;86.42;99528.31;5017047;28;20207;-80
2023/12/31 05:45:38;;;;;;;0.90;0.90;;;;;;;8.59;86.16;99520.47;5017469;28;20288;-80
2023/12/31 05:48:05;;;;;;;1.23;0.80;;;;;;;8.60;86.04;99516.09;5016785;28;20219;-80
2023/12/31 05:50:32;;;;;;;1.37;1.00;;;;;;;8.63;85.90;99526.44;5017942;28;20257;-80
2023/12/31 05:52:59;;;;;;;0.90;0.90;;;;;;;8.67;85.82;99528.06;5017839;28;20203;-80
2023/12/31 05:55:26;;;;;;;1.60;1.00;;;;;;;8.69;85.61;99539.28;5017442;28;20262;-80
2023/12/31 05:57:52;;;;;;;1.90;0.93;;;;;;;8.72;84.99;99545.28;5016781;28;20269;-80
2023/12/31 06:00:19;;;;;;;1.47;1.00;;;;;;;8.71;85.13;99545.31;5017481;28;20207;-80
2023/12/31 06:02:45;;;;;;;1.23;1.00;;;;;;;8.71;85.16;99540.94;5017283;28;20253;-80
2023/12/31 06:05:11;;;;;;;1.70;1.00;;;;;;;8.72;84.78;99547.88;5018052;28;20235;-80
2023/12/31 06:07:38;;;;;;;1.50;0.83;;;;;;;8.72;84.38;99544.41;5016943;28;20666;-80
2023/12/31 06:10:06;;;;;;;2.57;1.07;;;;;;;8.67;85.05;99539.31;5020157;28;20254;-80
2023/12/31 06:12:33;;;;;;;2.30;1.00;;;;;;;8.66;84.63;99537.63;5021692;28;20204;-80
2023/12/31 06:15:00;;;;;;;2.40;1.10;;;;;;;8.61;85.00;99534.28;5020653;28;20230;-80
2023/12/31 06:17:26;;;;;;;1.83;0.90;;;;;;;8.52;84.98;99538.00;5020362;28;20674;-80
2023/12/31 06:19:53;;;;;;;1.70;1.20;;;;;;;8.50;85.42;99531.97;5021212;28;20249;-80
2023/12/31 06:22:19;;;;;;;1.40;1.20;;;;;;;8.58;85.26;99523.94;5021096;28;20754;-80
2023/12/31 06:24:45;;;;;;;2.30;1.13;;;;;;;8.58;85.39;99523.09;5020920;28;20242;-80
2023/12/31 06:27:13;;;;;;;1.80;1.00;;;;;;;8.64;84.76;99523.81;5020504;28;20214;-80
2023/12/31 06:29:39;;;;;;;1.30;1.20;;;;;;;8.61;84.91;99529.09;5021004;28;20226;-80
2023/12/31 06:32:06;;;;;;;1.47;1.00;;;;;;;8.65;84.34;99525.50;5019398;28;20215;-80
2023/12/31 06:34:33;;;;;;;1.33;1.10;;;;;;;8.52;84.31;99532.78;5022222;28;20208;-80
2023/12/31 06:36:59;;;;;;;1.13;1.03;;;;;;;8.57;84.26;99534.41;5021995;28;20234;-80
2023/12/31 06:39:25;;;;;;;1.47;1.00;;;;;;;8.59;84.63;99517.88;5019764;28;20207;-80
2023/12/31 06:41:51;;;;;;;2.53;1.13;;;;;;;8.50;84.72;99529.38;5021716;28;20253;-80
2023/12/31 06:44:19;;;;;;;3.00;1.00;;;;;;;8.50;84.68;99524.16;5021506;28;20273;-80
2023/12/31 06:46:45;;;;;;;1.20;1.10;;;;;;;8.55;84.24;99530.09;5020639;28;20211;-79
2023/12/31 06:49:12;;;;;;;5.80;1.87;;;;;;;8.63;84.20;99523.84;5022030;28;20235;-80
2023/12/31 06:51:39;;;;;;;2.07;1.07;;;;;;;8.67;83.60;99533.28;5021595;28;20221;-80
2023/12/31 06:54:05;;;;;;;1.37;1.07;;;;;;;8.70;83.05;99543.59;5021229;28;20243;-80
2023/12/31 06:56:32;;;;;;;1.40;1.17;;;;;;;8.80;83.09;99536.41;5021032;28;20717;-80
2023/12/31 06:58:58;;;;;;;1.20;1.00;;;;;;;8.81;82.62;99538.97;5022016;28;20211;-80
2023/12/31 07:01:26;;;;;;;1.37;1.03;;;;;;;8.87;82.45;99536.19;5021175;28;20281;-80
2023/12/31 07:03:52;;;;;;;1.20;1.10;;;;;;;8.86;82.31;99551.84;5019359;28;20199;-80
2023/12/31 07:06:19;;;;;;;1.50;1.20;;;;;;;8.83;82.18;99558.00;5018828;28;20277;-80
2023/12/31 07:08:45;;;;;;;1.10;1.00;;;;;;;8.83;82.24;99563.19;5018661;28;20737;-80
2023/12/31 07:11:12;;;;;;;2.87;1.23;;;;;;;8.75;82.24;99566.00;5019329;28;20210;-80
2023/12/31 07:13:38;;;;;;;2.40;1.40;;;;;;;8.80;82.08;99563.31;5019943;28;20237;-80
2023/12/31 07:16:04;;;;;;;3.17;1.47;;;;;;;8.89;81.63;99563.03;5019492;28;20239;-80
2023/12/31 07:18:33;;;;;;;1.07;0.90;;;;;;;8.94;81.69;99568.16;5025374;28;20202;-80
2023/12/31 07:20:59;;;;;;;2.37;1.20;;;;;;;8.97;81.44;99575.00;5025685;28;20649;-80
2023/12/31 07:23:26;;;;;;;2.47;1.30;;;;;;;8.95;81.07;99582.84;5025777;28;20215;-81
2023/12/31 07:25:52;;;;;;;1.20;1.10;;;;;;;8.91;81.15;99586.44;5024990;28;20219;-81
2023/12/31 07:28:19;;;;;;;1.03;0.93;;;;;;;9.02;80.75;99580.94;5025504;28;20202;-80
2023/12/31 07:30:46;;;;;;;1.30;1.10;;;;;;;9.03;80.63;99573.09;5017314;28;20234;-80
2023/12/31 07:33:13;;;;;;;1.20;1.00;;;;;;;8.92;80.99;99588.16;5025499;28;20199;-80
2023/12/31 07:35:41;;;;;;;1.17;1.07;;;;;;;8.93;80.95;99588.09;5025680;28;20285;-80
2023/12/31 07:38:08;;;;;;;1.63;1.20;;;;;;;9.02;80.58;99583.53;5026599;28;20207;-80
2023/12/31 07:40:35;;;;;;;2.10;1.10;;;;;;;8.91;79.81;99602.88;5025127;28;20203;-79
2023/12/31 07:43:02;;;;;;;1.20;0.93;;;;;;;8.97;79.94;99595.84;5023035;28;20211;-80
2023/12/31 07:45:28;;;;;;;1.33;1.10;;;;;;;8.99;79.69;99605.31;5022251;28;20219;-80
2023/12/31 07:47:55;;;;;;;1.20;1.10;;;;;;;9.03;79.82;99617.34;5021591;28;20205;-80
2023/12/31 07:50:21;;;;;;;2.53;0.97;;;;;;;9.00;79.00;99629.56;5023073;28;20297;-80
2023/12/31 07:52:50;;;;;;;2.07;1.30;;;;;;;9.05;79.37;99627.72;5022897;28;20578;-80
2023/12/31 07:55:16;;;;;;;1.80;1.03;;;;;;;9.03;79.03;99619.94;5022920;28;20322;-80
2023/12/31 07:57:43;;;;;;;2.73;1.20;;;;;;;9.05;79.00;99623.34;5021993;28;20682;-80
2023/12/31 08:00:10;;;;;;;1.60;1.17;;;;;;;8.87;80.00;99616.88;5023226;28;20206;-80
2023/12/31 08:02:36;;;;;;;1.93;1.20;;;;;;;8.71;79.73;99615.56;5024421;28;20218;-80
2023/12/31 08:05:03;;;;;;;1.67;1.00;;;;;;;8.82;80.17;99595.34;5022700;28;20270;-80
2023/12/31 08:07:30;;;;;;;1.63;1.27;;;;;;;8.92;80.04;99596.81;5022505;28;20202;-80
2023/12/31 08:09:57;;;;;;;1.83;1.27;;;;;;;9.04;79.65;99598.25;5024032;28;20282;-80
2023/12/31 08:12:24;;;;;;;1.07;0.97;;;;;;;9.04;79.08;99607.78;5024050;28;20795;-80
2023/12/31 08:14:51;;;;;;;1.57;1.27;;;;;;;9.19;78.95;99612.59;5023846;28;20273;-80
2023/12/31 08:17:17;;;;;;;1.80;1.10;;;;;;;9.13;78.92;99611.00;5024769;28;20213;-80
2023/12/31 08:19:44;;;;;;;1.33;1.07;;;;;;;9.18;78.79;99607.41;5026296;28;20203;-81
2023/12/31 08:22:10;;;;;;;2.00;1.20;;;;;;;9.22;78.32;99616.88;5026040;28;20269;-80
2023/12/31 08:24:36;;;;;;;1.83;0.90;;;;;;;8.96;78.18;99626.22;5027399;28;20215;-81
2023/12/31 08:27:04;;;;;;;1.33;1.23;;;;;;;8.91;77.82;99641.09;5027681;28;20261;-81
2023/12/31 08:29:31;;;;;;;3.17;1.10;;;;;;;9.20;78.12;99626.47;5030056;28;20227;-80
2023/12/31 08:31:57;;;;;;;1.30;1.20;;;;;;;9.25;77.55;99627.19;5034351;28;20214;-79
2023/12/31 08:34:23;;;;;;;2.87;1.30;;;;;;;9.24;77.91;99628.09;5037255;28;20203;-80
2023/12/31 08:36:50;;;;;;;1.13;0.97;;;;;;;9.28;77.44;99619.31;5031626;28;20247;-80
2023/12/31 08:39:16;;;;;;;1.23;1.13;;;;;;;9.35;77.34;99623.44;5033938;28;20199;-79
2023/12/31 08:41:43;;;;;;;2.50;1.30;;;;;;;9.36;77.31;99627.78;5033753;28;20245;-79
2023/12/31 08:44:10;;;;;;;2.07;1.70;;;;;;;9.43;77.07;99625.84;5034942;28;20207;-79
2023/12/31 08:46:37;;;;;;;1.07;1.00;;;;;;;9.38;76.95;99632.94;5034899;28;20210;-80
2023/12/31 08:49:05;;;;;;;1.70;0.90;;;;;;;9.41;76.55;99644.09;5031494;28;20202;-81
2023/12/31 08:51:31;;;;;;;1.70;1.30;;;;;;;9.44;76.43;99637.97;5023788;28;20205;-80
2023/12/31 08:53:58;;;;;;;1.83;1.40;;;;;;;9.47;76.79;99643.09;5023211;28;20666;-80
2023/12/31 08:56:24;;;;;;;1.57;1.27;;;;;;;9.39;76.61;99645.06;5022628;28;20276;-80
2023/12/31 08:58:51;;;;;;;2.97;1.43;;;;;;;9.41;76.08;99656.28;5023785;28;20211;-80
2023/12/31 09:01:19;;;;;;;1.10;1.00;;;;;;;9.46;75.30;99665.69;5024094;28;20206;-80
2023/12/31 09:03:45;;;;;;;1.57;1.37;;;;;;;9.19;74.58;99685.50;5023551;28;20293;-80
2023/12/31 09:06:11;;;;;;;1.97;1.23;;;;;;;9.45;75.57;99676.16;5023914;28;20289;-82
2023/12/31 09:08:38;;;;;;;1.40;1.17;;;;;;;9.45;75.28;99679.59;5027202;28;20206;-82
2023/12/31 09:11:04;;;;;;;1.30;1.23;;;;;;;9.42;75.28;99669.28;5028622;28;20227;-82
2023/12/31 09:13:31;;;;;;;2.60;1.57;;;;;;;9.44;75.49;99674.47;5033418;28;20199;-82
2023/12/31 09:15:57;;;;;;;1.57;1.20;;;;;;;9.43;74.95;99672.72;5032883;28;20248;-82
2023/12/31 09:18:28;;;;;;;1.63;1.20;;;;;;;9.62;74.47;99675.72;5031488;28;20199;-82
2023/12/31 09:20:54;;;;;;;1.40;1.30;;;;;;;9.65;74.69;99678.22;5032903;28;20195;-82
2023/12/31 09:23:21;;;;;;;1.67;1.30;;;;;;;9.65;74.51;99681.69;5032154;28;20259;-82
2023/12/31 09:25:47;;;;;;;1.50;1.40;;;;;;;9.69;74.37;99682.44;5031643;28;20277;-80
2023/12/31 09:28:14;;;;;;;1.37;1.20;;;;;;;9.78;74.28;99673.53;5028948;28;20195;-81
2023/12/31 09:30:40;;;;;;;1.00;0.90;;;;;;;9.67;73.65;99700.75;5029678;28;20226;-81
2023/12/31 09:33:06;;;;;;;1.40;1.30;;;;;;;9.74;73.38;99714.47;5028348;28;20233;-81
2023/12/31 09:35:34;;;;;;;2.47;1.33;;;;;;;9.80;73.22;99724.72;5036376;28;20672;-81
2023/12/31 09:38:01;;;;;;;1.40;1.30;;;;;;;9.89;73.38;99724.47;5025256;28;20270;-81
2023/12/31 09:40:27;;;;;;;1.37;1.10;;;;;;;9.76;71.77;99743.09;5024206;28;20196;-81
2023/12/31 09:42:55;;;;;;;1.20;1.10;;;;;;;9.60;72.68;99764.34;5022018;28;20269;-81
2023/12/31 09:45:23;;;;;;;3.30;1.67;;;;;;;9.76;73.22;99751.75;5034104;28;20245;-81
2023/12/31 09:47:50;;;;;;;2.13;1.30;;;;;;;9.53;72.39;99747.13;5029594;28;20206;-81
2023/12/31 09:50:19;;;;;;;2.20;1.40;;;;;;;9.52;72.35;99741.06;5022097;28;20230;-81
2023/12/31 09:52:48;;;;;;;1.30;1.20;;;;;;;9.69;72.59;99740.66;5012427;28;20430;-81
2023/12/31 09:55:16;;;;;;;1.50;1.20;;;;;;;9.73;72.79;99738.78;5011296;28;20223;-81
2023/12/31 09:57:43;;;;;;;1.70;1.30;;;;;;;9.70;72.18;99731.06;5013125;28;20206;-81
2023/12/31 10:00:11;;;;;;;5.27;1.33;;;;;;;9.79;72.22;99720.41;5023532;28;20268;-81
2023/12/31 10:02:37;;;;;;;1.57;1.37;;;;;;;9.64;72.74;99739.06;5023667;28;20211;-81
2023/12/31 10:05:05;;;;;;;1.37;1.27;;;;;;;9.67;71.99;99723.31;5026610;28;20595;-81
2023/12/31 10:07:31;;;;;;;1.60;1.50;;;;;;;9.70;71.33;99731.06;5021653;28;20682;-81
2023/12/31 10:10:02;;;;;;;1.50;1.40;;;;;;;9.78;71.92;99726.50;5022537;28;20223;-81
2023/12/31 10:12:29;;;;;;;2.07;1.30;;;;;;;9.79;71.23;99717.81;5031775;28;20206;-81
2023/12/31 10:14:55;;;;;;;2.67;1.90;;;;;;;9.78;71.08;99723.06;5023655;28;20235;-81
2023/12/31 10:17:22;;;;;;;1.77;1.20;;;;;;;9.80;70.92;99722.09;5004712;28;20208;-81
2023/12/31 10:19:48;;;;;;;2.20;2.00;;;;;;;9.90;71.50;99720.09;5042012;28;20207;-81
2023/12/31 10:22:15;;;;;;;4.07;3.67;;;;;;;9.83;71.41;99710.72;5043944;28;20202;-81
2023/12/31 10:24:41;;;;;;;2.10;2.00;;;;;;;9.97;71.42;99713.84;5044568;28;20231;-81
2023/12/31 10:27:09;;;;;;;3.17;2.33;;;;;;;9.94;70.94;99713.91;5025722;28;20294;-79
2023/12/31 10:29:36;;;;;;;3.20;1.70;;;;;;;9.98;71.32;99718.13;5015134;28;20214;-80
2023/12/31 10:32:03;;;;;;;1.60;1.50;;;;;;;9.96;71.17;99714.72;5015065;28;20202;-79
2023/12/31 10:34:29;;;;;;;1.80;1.60;;;;;;;9.99;70.57;99706.81;5013524;28;20216;-78
2023/12/31 10:37:03;;;;;;;1.97;1.50;;;;;;;10.16;70.43;99698.50;5030658;28;20214;-79
2023/12/31 10:39:32;;;;;;;2.00;1.80;;;;;;;10.11;70.04;99703.84;5022699;28;20200;-79
2023/12/31 10:42:00;;;;;;;1.70;1.53;;;;;;;10.14;71.96;99684.66;5014275;28;20203;-79
2023/12/31 10:44:28;;;;;;;1.60;1.50;;;;;;;10.06;72.84;99661.41;5024185;28;20628;-79
2023/12/31 10:46:58;;;;;;;2.40;1.90;;;;;;;10.04;72.38;99644.94;5012784;28;20504;-78
2023/12/31 10:49:27;;;;;;;2.20;2.00;;;;;;;10.03;72.87;99630.22;5015056;28;20207;-79
2023/12/31 10:51:54;;;;;;;1.77;1.50;;;;;;;10.00;71.81;99625.09;5015283;28;20650;-79
2023/12/31 10:54:26;;;;;;;1.70;1.60;;;;;;;10.11;72.58;99619.56;5014450;28;20261;-79
2023/12/31 10:56:54;;;;;;;2.30;1.67;;;;;;;10.21;72.29;99605.34;5015569;28;20246;-80
2023/12/31 10:59:21;;;;;;;3.53;1.70;;;;;;;10.09;72.21;99598.75;5019296;28;20207;-79
2023/12/31 11:01:49;;;;;;;1.80;1.70;;;;;;;10.18;72.51;99597.59;5018164;28;20251;-86
2023/12/31 11:04:16;;;;;;;2.57;1.87;;;;;;;10.25;72.11;99593.06;5018258;28;20214;-82
2023/12/31 11:06:44;;;;;;;2.43;1.97;;;;;;;10.19;72.16;99585.41;5019064;28;20238;-82
2023/12/31 11:09:11;;;;;;;2.00;1.90;;;;;;;10.07;72.24;99577.06;5017784;28;20230;-82
2023/12/31 11:11:38;;;;;;;3.23;1.50;;;;;;;9.97;73.23;99578.25;5017585;28;20227;-82
2023/12/31 11:14:06;;;;;;;5.47;2.10;;;;;;;10.05;73.19;99554.53;5018403;28;20203;-81
2023/12/31 11:16:48;;;;;;;2.57;2.37;;;;;;;10.10;72.45;99547.44;5035664;28;20618;-81
2023/12/31 11:19:53;;;;;;;2.57;2.13;;;;;;;10.12;71.64;99558.66;5037884;28;20201;-82
2023/12/31 11:22:36;;;;;;;3.57;3.23;;;;;;;10.27;72.30;99552.97;5029667;28;20194;-81
2023/12/31 11:25:04;;;;;;;3.13;2.83;;;;;;;10.32;72.13;99560.69;5018592;28;20226;-82
2023/12/31 11:27:32;;;;;;;4.37;4.07;;;;;;;10.38;72.21;99567.47;5019305;28;20203;-80
2023/12/31 11:29:59;;;;;;;3.60;2.97;;;;;;;10.32;71.87;99579.78;5028255;28;20229;-80
2023/12/31 11:32:27;;;;;;;1.70;1.60;;;;;;;10.30;70.71;99578.13;5028967;28;20243;-80
2023/12/31 11:34:55;;;;;;;3.00;2.40;;;;;;;10.44;71.34;99593.34;5025694;28;20224;-80
2023/12/31 11:37:22;;;;;;;1.60;1.50;;;;;;;10.46;70.26;99587.16;5030623;28;20198;-83